sensor_id;sensor_type;location;lat;lon;timestamp;temperature;humidity
26099;DHT22;13860;52.370;6.764;2023-02-08T00:01:50;-0.20;79.80
26099;DHT22;13860;52.370;6.764;2023-02-08T00:04:55;-0.20;79.80
26099;DHT22;13860;52.370;6.764;2023-02-08T00:08:01;-0.20;79.80
26099;DHT22;13860;52.370;6.764;2023-02-08T00:11:06;-0.20;79.80
26099;DHT22;13860;52.370;6.764;2023-02-08T00:14:13;-0.30;79.80
26099;DHT22;13860;52.370;6.764;2023-02-08T00:17:17;-0.30;79.80
26099;DHT22;13860;52.370;6.764;2023-02-08T00:20:24;-0.30;79.80
26099;DHT22;13860;52.370;6.764;2023-02-08T00:23:28;-0.30;79.80
26099;DHT22;13860;52.370;6.764;2023-02-08T00:26:34;-0.30;79.90
26099;DHT22;13860;52.370;6.764;2023-02-08T00:29:38;-0.40;79.80
26099;DHT22;13860;52.370;6.764;2023-02-08T00:32:44;-0.40;79.90
26099;DHT22;13860;52.370;6.764;2023-02-08T00:35:50;-0.40;79.90
26099;DHT22;13860;52.370;6.764;2023-02-08T00:38:56;-0.40;79.90
26099;DHT22;13860;52.370;6.764;2023-02-08T00:42:00;-0.40;79.90
26099;DHT22;13860;52.370;6.764;2023-02-08T00:45:06;-0.50;79.90
26099;DHT22;13860;52.370;6.764;2023-02-08T00:48:10;-0.50;79.90
26099;DHT22;13860;52.370;6.764;2023-02-08T00:51:18;-0.50;79.90
26099;DHT22;13860;52.370;6.764;2023-02-08T00:54:24;-0.50;79.90
26099;DHT22;13860;52.370;6.764;2023-02-08T00:57:31;-0.50;79.90
26099;DHT22;13860;52.370;6.764;2023-02-08T01:00:35;-0.50;79.90
26099;DHT22;13860;52.370;6.764;2023-02-08T01:03:43;-0.50;79.90
26099;DHT22;13860;52.370;6.764;2023-02-08T01:06:50;-0.60;79.90
26099;DHT22;13860;52.370;6.764;2023-02-08T01:10:11;-0.60;79.90
26099;DHT22;13860;52.370;6.764;2023-02-08T01:13:15;-0.60;79.90
26099;DHT22;13860;52.370;6.764;2023-02-08T01:16:25;-0.60;80.00
26099;DHT22;13860;52.370;6.764;2023-02-08T01:19:32;-0.60;80.00
26099;DHT22;13860;52.370;6.764;2023-02-08T01:22:41;-0.70;80.00
26099;DHT22;13860;52.370;6.764;2023-02-08T01:25:45;-0.60;80.00
26099;DHT22;13860;52.370;6.764;2023-02-08T01:28:52;-0.70;80.00
26099;DHT22;13860;52.370;6.764;2023-02-08T01:31:57;-0.70;80.00
26099;DHT22;13860;52.370;6.764;2023-02-08T01:35:06;-0.70;80.00
26099;DHT22;13860;52.370;6.764;2023-02-08T01:38:13;-0.70;80.00
26099;DHT22;13860;52.370;6.764;2023-02-08T01:41:22;-0.70;80.00
26099;DHT22;13860;52.370;6.764;2023-02-08T01:48:15;-0.80;80.00
26099;DHT22;13860;52.370;6.764;2023-02-08T01:51:22;-0.80;80.00
26099;DHT22;13860;52.370;6.764;2023-02-08T01:54:35;-0.80;80.00
26099;DHT22;13860;52.370;6.764;2023-02-08T01:57:42;-0.80;80.60
26099;DHT22;13860;52.370;6.764;2023-02-08T02:00:48;-0.80;80.00
26099;DHT22;13860;52.370;6.764;2023-02-08T02:03:52;-0.80;80.00
26099;DHT22;13860;52.370;6.764;2023-02-08T02:06:59;-0.90;80.00
26099;DHT22;13860;52.370;6.764;2023-02-08T02:10:09;-0.80;80.10
26099;DHT22;13860;52.370;6.764;2023-02-08T02:13:18;-0.90;80.00
26099;DHT22;13860;52.370;6.764;2023-02-08T02:16:22;-0.90;80.00
26099;DHT22;13860;52.370;6.764;2023-02-08T02:19:34;-0.90;80.10
26099;DHT22;13860;52.370;6.764;2023-02-08T02:33:52;-1.00;80.00
26099;DHT22;13860;52.370;6.764;2023-02-08T02:37:08;-1.00;80.00
26099;DHT22;13860;52.370;6.764;2023-02-08T02:40:20;-1.00;80.00
26099;DHT22;13860;52.370;6.764;2023-02-08T02:43:34;-1.00;80.00
26099;DHT22;13860;52.370;6.764;2023-02-08T02:46:51;-1.00;80.10
26099;DHT22;13860;52.370;6.764;2023-02-08T02:50:06;-1.00;80.10
26099;DHT22;13860;52.370;6.764;2023-02-08T02:53:19;-1.10;80.00
26099;DHT22;13860;52.370;6.764;2023-02-08T02:56:26;-1.10;80.00
26099;DHT22;13860;52.370;6.764;2023-02-08T02:59:33;-1.10;80.00
26099;DHT22;13860;52.370;6.764;2023-02-08T03:02:38;-1.10;80.70
26099;DHT22;13860;52.370;6.764;2023-02-08T03:05:46;-1.10;80.10
26099;DHT22;13860;52.370;6.764;2023-02-08T03:12:40;-1.20;80.00
26099;DHT22;13860;52.370;6.764;2023-02-08T03:15:58;-1.20;80.00
26099;DHT22;13860;52.370;6.764;2023-02-08T03:19:08;-1.20;80.10
26099;DHT22;13860;52.370;6.764;2023-02-08T03:22:22;-1.20;80.10
26099;DHT22;13860;52.370;6.764;2023-02-08T03:25:35;-1.20;80.10
26099;DHT22;13860;52.370;6.764;2023-02-08T03:28:49;-1.20;80.10
26099;DHT22;13860;52.370;6.764;2023-02-08T03:32:01;-1.30;80.10
26099;DHT22;13860;52.370;6.764;2023-02-08T03:35:10;-1.30;80.10
26099;DHT22;13860;52.370;6.764;2023-02-08T03:38:24;-1.30;80.10
26099;DHT22;13860;52.370;6.764;2023-02-08T03:41:34;-1.30;80.20
26099;DHT22;13860;52.370;6.764;2023-02-08T03:44:44;-1.30;80.10
26099;DHT22;13860;52.370;6.764;2023-02-08T03:47:52;-1.40;80.10
26099;DHT22;13860;52.370;6.764;2023-02-08T03:51:00;-1.40;80.10
26099;DHT22;13860;52.370;6.764;2023-02-08T03:54:11;-1.40;80.10
26099;DHT22;13860;52.370;6.764;2023-02-08T03:57:19;-1.40;80.20
26099;DHT22;13860;52.370;6.764;2023-02-08T04:00:24;-1.40;80.10
26099;DHT22;13860;52.370;6.764;2023-02-08T04:03:32;-1.40;80.10
26099;DHT22;13860;52.370;6.764;2023-02-08T04:06:36;-1.50;80.10
26099;DHT22;13860;52.370;6.764;2023-02-08T04:09:44;-1.50;80.10
26099;DHT22;13860;52.370;6.764;2023-02-08T04:13:03;-1.50;80.80
26099;DHT22;13860;52.370;6.764;2023-02-08T04:16:09;-1.50;80.20
26099;DHT22;13860;52.370;6.764;2023-02-08T04:19:14;-1.50;80.20
26099;DHT22;13860;52.370;6.764;2023-02-08T04:22:20;-1.50;80.20
26099;DHT22;13860;52.370;6.764;2023-02-08T04:25:26;-1.50;80.20
26099;DHT22;13860;52.370;6.764;2023-02-08T04:28:32;-1.50;80.20
26099;DHT22;13860;52.370;6.764;2023-02-08T04:31:35;-1.50;80.20
26099;DHT22;13860;52.370;6.764;2023-02-08T04:34:42;-1.50;80.30
26099;DHT22;13860;52.370;6.764;2023-02-08T04:37:45;-1.50;80.30
26099;DHT22;13860;52.370;6.764;2023-02-08T04:40:54;-1.50;80.30
26099;DHT22;13860;52.370;6.764;2023-02-08T04:43:58;-1.50;80.20
26099;DHT22;13860;52.370;6.764;2023-02-08T04:47:03;-1.50;80.30
26099;DHT22;13860;52.370;6.764;2023-02-08T04:50:08;-1.50;80.30
26099;DHT22;13860;52.370;6.764;2023-02-08T04:53:13;-1.50;80.30
26099;DHT22;13860;52.370;6.764;2023-02-08T04:56:19;-1.60;80.20
26099;DHT22;13860;52.370;6.764;2023-02-08T04:59:25;-1.60;80.20
26099;DHT22;13860;52.370;6.764;2023-02-08T05:02:29;-1.60;80.20
26099;DHT22;13860;52.370;6.764;2023-02-08T05:05:35;-1.60;80.20
26099;DHT22;13860;52.370;6.764;2023-02-08T05:08:39;-1.60;80.20
26099;DHT22;13860;52.370;6.764;2023-02-08T05:11:47;-1.60;80.20
26099;DHT22;13860;52.370;6.764;2023-02-08T05:14:50;-1.60;80.30
26099;DHT22;13860;52.370;6.764;2023-02-08T05:17:56;-1.60;80.20
26099;DHT22;13860;52.370;6.764;2023-02-08T05:21:00;-1.60;80.30
26099;DHT22;13860;52.370;6.764;2023-02-08T05:24:06;-1.60;80.30
26099;DHT22;13860;52.370;6.764;2023-02-08T05:27:14;-1.60;80.30
26099;DHT22;13860;52.370;6.764;2023-02-08T05:30:20;-1.60;80.30
26099;DHT22;13860;52.370;6.764;2023-02-08T05:33:24;-1.70;80.30
26099;DHT22;13860;52.370;6.764;2023-02-08T05:36:31;-1.70;80.30
26099;DHT22;13860;52.370;6.764;2023-02-08T05:39:34;-1.70;80.30
26099;DHT22;13860;52.370;6.764;2023-02-08T05:42:42;-1.60;80.40
26099;DHT22;13860;52.370;6.764;2023-02-08T05:45:49;-1.70;80.40
26099;DHT22;13860;52.370;6.764;2023-02-08T05:48:55;-1.70;80.30
26099;DHT22;13860;52.370;6.764;2023-02-08T05:51:59;-1.70;80.30
26099;DHT22;13860;52.370;6.764;2023-02-08T05:55:06;-1.70;80.40
26099;DHT22;13860;52.370;6.764;2023-02-08T05:58:12;-1.70;80.30
26099;DHT22;13860;52.370;6.764;2023-02-08T06:01:18;-1.70;80.30
26099;DHT22;13860;52.370;6.764;2023-02-08T06:04:22;-1.70;80.40
26099;DHT22;13860;52.370;6.764;2023-02-08T06:07:28;-1.70;80.40
26099;DHT22;13860;52.370;6.764;2023-02-08T06:10:32;-1.70;80.30
26099;DHT22;13860;52.370;6.764;2023-02-08T06:13:40;-1.70;80.40
26099;DHT22;13860;52.370;6.764;2023-02-08T06:16:43;-1.70;80.30
26099;DHT22;13860;52.370;6.764;2023-02-08T06:19:49;-1.70;80.40
26099;DHT22;13860;52.370;6.764;2023-02-08T06:22:54;-1.70;80.40
26099;DHT22;13860;52.370;6.764;2023-02-08T06:26:00;-1.70;80.40
26099;DHT22;13860;52.370;6.764;2023-02-08T06:29:06;-1.70;80.40
26099;DHT22;13860;52.370;6.764;2023-02-08T06:32:12;-1.70;80.40
26099;DHT22;13860;52.370;6.764;2023-02-08T06:35:16;-1.70;80.40
26099;DHT22;13860;52.370;6.764;2023-02-08T06:38:22;-1.70;80.40
26099;DHT22;13860;52.370;6.764;2023-02-08T06:41:26;-1.70;80.40
26099;DHT22;13860;52.370;6.764;2023-02-08T06:44:34;-1.70;80.40
26099;DHT22;13860;52.370;6.764;2023-02-08T06:47:38;-1.70;80.40
26099;DHT22;13860;52.370;6.764;2023-02-08T06:50:43;-1.70;80.40
26099;DHT22;13860;52.370;6.764;2023-02-08T06:53:47;-1.70;80.40
26099;DHT22;13860;52.370;6.764;2023-02-08T06:56:53;-1.70;80.40
26099;DHT22;13860;52.370;6.764;2023-02-08T06:59:59;-1.70;80.40
26099;DHT22;13860;52.370;6.764;2023-02-08T07:03:05;-1.70;80.40
26099;DHT22;13860;52.370;6.764;2023-02-08T07:06:13;-1.70;80.40
26099;DHT22;13860;52.370;6.764;2023-02-08T07:09:19;-1.70;80.50
26099;DHT22;13860;52.370;6.764;2023-02-08T07:12:23;-1.70;80.40
26099;DHT22;13860;52.370;6.764;2023-02-08T07:15:31;-1.70;80.40
26099;DHT22;13860;52.370;6.764;2023-02-08T07:18:36;-1.70;80.40
26099;DHT22;13860;52.370;6.764;2023-02-08T07:21:42;-1.70;80.50
26099;DHT22;13860;52.370;6.764;2023-02-08T07:24:46;-1.80;80.40
26099;DHT22;13860;52.370;6.764;2023-02-08T07:27:52;-1.80;80.50
26099;DHT22;13860;52.370;6.764;2023-02-08T07:30:58;-1.80;80.40
26099;DHT22;13860;52.370;6.764;2023-02-08T07:34:04;-1.80;80.50
26099;DHT22;13860;52.370;6.764;2023-02-08T07:37:08;-1.80;80.50
26099;DHT22;13860;52.370;6.764;2023-02-08T07:40:14;-1.80;80.50
26099;DHT22;13860;52.370;6.764;2023-02-08T07:43:18;-1.80;80.50
26099;DHT22;13860;52.370;6.764;2023-02-08T07:46:34;-1.80;80.60
26099;DHT22;13860;52.370;6.764;2023-02-08T07:49:38;-1.80;80.50
26099;DHT22;13860;52.370;6.764;2023-02-08T07:52:44;-1.80;80.50
26099;DHT22;13860;52.370;6.764;2023-02-08T07:55:48;-1.80;80.70
26099;DHT22;13860;52.370;6.764;2023-02-08T07:58:54;-1.70;81.20
26099;DHT22;13860;52.370;6.764;2023-02-08T08:02:00;-1.70;80.60
26099;DHT22;13860;52.370;6.764;2023-02-08T08:05:07;-1.70;80.60
26099;DHT22;13860;52.370;6.764;2023-02-08T08:08:12;-1.60;80.70
26099;DHT22;13860;52.370;6.764;2023-02-08T08:11:19;-1.60;80.70
26099;DHT22;13860;52.370;6.764;2023-02-08T08:14:23;-1.60;80.70
26099;DHT22;13860;52.370;6.764;2023-02-08T08:17:31;-1.60;80.70
26099;DHT22;13860;52.370;6.764;2023-02-08T08:20:34;-1.60;80.70
26099;DHT22;13860;52.370;6.764;2023-02-08T08:23:41;-1.50;80.70
26099;DHT22;13860;52.370;6.764;2023-02-08T08:26:44;-1.50;80.70
26099;DHT22;13860;52.370;6.764;2023-02-08T08:29:51;-1.50;80.80
26099;DHT22;13860;52.370;6.764;2023-02-08T08:32:56;-1.50;80.80
26099;DHT22;13860;52.370;6.764;2023-02-08T08:36:03;-1.40;80.80
26099;DHT22;13860;52.370;6.764;2023-02-08T08:39:06;-1.40;80.90
26099;DHT22;13860;52.370;6.764;2023-02-08T08:42:12;-1.20;81.00
26099;DHT22;13860;52.370;6.764;2023-02-08T08:45:16;-1.20;81.20
26099;DHT22;13860;52.370;6.764;2023-02-08T08:48:24;-1.00;81.20
26099;DHT22;13860;52.370;6.764;2023-02-08T08:51:28;-1.00;81.20
26099;DHT22;13860;52.370;6.764;2023-02-08T08:54:37;-0.80;81.40
26099;DHT22;13860;52.370;6.764;2023-02-08T08:57:56;-0.60;81.60
26099;DHT22;13860;52.370;6.764;2023-02-08T09:01:02;-0.40;81.60
26099;DHT22;13860;52.370;6.764;2023-02-08T09:04:08;-0.10;81.80
26099;DHT22;13860;52.370;6.764;2023-02-08T09:07:14;0.10;81.80
26099;DHT22;13860;52.370;6.764;2023-02-08T09:10:18;0.30;81.80
26099;DHT22;13860;52.370;6.764;2023-02-08T09:13:24;0.50;81.80
26099;DHT22;13860;52.370;6.764;2023-02-08T09:16:28;0.70;81.70
26099;DHT22;13860;52.370;6.764;2023-02-08T09:19:36;0.90;81.70
26099;DHT22;13860;52.370;6.764;2023-02-08T09:22:40;1.10;81.60
26099;DHT22;13860;52.370;6.764;2023-02-08T09:25:46;1.20;81.50
26099;DHT22;13860;52.370;6.764;2023-02-08T09:28:51;1.30;81.40
26099;DHT22;13860;52.370;6.764;2023-02-08T09:31:57;1.50;81.40
26099;DHT22;13860;52.370;6.764;2023-02-08T09:35:18;1.60;81.30
26099;DHT22;13860;52.370;6.764;2023-02-08T09:38:24;1.80;81.40
26099;DHT22;13860;52.370;6.764;2023-02-08T09:41:45;1.90;81.40
26099;DHT22;13860;52.370;6.764;2023-02-08T09:45:10;2.10;81.50
26099;DHT22;13860;52.370;6.764;2023-02-08T09:48:22;2.30;81.50
26099;DHT22;13860;52.370;6.764;2023-02-08T09:51:34;2.60;81.60
26099;DHT22;13860;52.370;6.764;2023-02-08T09:54:42;2.80;81.50
26099;DHT22;13860;52.370;6.764;2023-02-08T09:57:51;3.00;81.50
26099;DHT22;13860;52.370;6.764;2023-02-08T10:00:56;3.30;81.50
26099;DHT22;13860;52.370;6.764;2023-02-08T10:04:08;3.50;81.40
26099;DHT22;13860;52.370;6.764;2023-02-08T10:07:17;3.70;81.40
26099;DHT22;13860;52.370;6.764;2023-02-08T10:10:40;4.00;81.30
26099;DHT22;13860;52.370;6.764;2023-02-08T10:13:58;4.20;81.40
26099;DHT22;13860;52.370;6.764;2023-02-08T10:17:20;4.50;81.30
26099;DHT22;13860;52.370;6.764;2023-02-08T10:20:36;4.70;81.10
26099;DHT22;13860;52.370;6.764;2023-02-08T10:24:05;4.90;81.00
26099;DHT22;13860;52.370;6.764;2023-02-08T10:27:15;5.20;80.90
26099;DHT22;13860;52.370;6.764;2023-02-08T10:30:29;5.40;80.80
26099;DHT22;13860;52.370;6.764;2023-02-08T10:33:44;5.60;80.70
26099;DHT22;13860;52.370;6.764;2023-02-08T10:36:52;5.90;80.60
26099;DHT22;13860;52.370;6.764;2023-02-08T10:40:07;6.10;80.40
26099;DHT22;13860;52.370;6.764;2023-02-08T10:43:25;6.20;80.00
26099;DHT22;13860;52.370;6.764;2023-02-08T10:46:34;6.40;80.00
26099;DHT22;13860;52.370;6.764;2023-02-08T10:49:47;6.60;79.80
26099;DHT22;13860;52.370;6.764;2023-02-08T10:52:53;6.70;79.50
26099;DHT22;13860;52.370;6.764;2023-02-08T10:56:02;6.80;79.30
26099;DHT22;13860;52.370;6.764;2023-02-08T10:59:14;7.00;79.20
26099;DHT22;13860;52.370;6.764;2023-02-08T11:02:21;7.10;79.00
26099;DHT22;13860;52.370;6.764;2023-02-08T11:05:34;7.20;78.90
26099;DHT22;13860;52.370;6.764;2023-02-08T11:08:53;7.40;79.00
26099;DHT22;13860;52.370;6.764;2023-02-08T11:12:01;7.50;78.60
26099;DHT22;13860;52.370;6.764;2023-02-08T11:15:22;7.60;78.50
26099;DHT22;13860;52.370;6.764;2023-02-08T11:18:30;7.70;77.90
26099;DHT22;13860;52.370;6.764;2023-02-08T11:21:38;7.70;77.90
26099;DHT22;13860;52.370;6.764;2023-02-08T11:24:43;7.80;77.60
26099;DHT22;13860;52.370;6.764;2023-02-08T11:27:54;7.90;77.40
26099;DHT22;13860;52.370;6.764;2023-02-08T11:31:02;8.00;77.10
26099;DHT22;13860;52.370;6.764;2023-02-08T11:34:23;8.00;76.90
26099;DHT22;13860;52.370;6.764;2023-02-08T11:37:27;8.10;76.70
26099;DHT22;13860;52.370;6.764;2023-02-08T11:40:34;8.20;76.50
26099;DHT22;13860;52.370;6.764;2023-02-08T11:43:41;8.20;76.30
26099;DHT22;13860;52.370;6.764;2023-02-08T11:46:48;8.20;76.00
26099;DHT22;13860;52.370;6.764;2023-02-08T11:50:17;8.20;75.90
26099;DHT22;13860;52.370;6.764;2023-02-08T11:53:29;8.20;75.70
26099;DHT22;13860;52.370;6.764;2023-02-08T11:56:37;8.30;75.60
26099;DHT22;13860;52.370;6.764;2023-02-08T11:59:45;8.30;75.40
26099;DHT22;13860;52.370;6.764;2023-02-08T12:02:49;8.30;75.20
26099;DHT22;13860;52.370;6.764;2023-02-08T12:06:07;8.20;74.90
26099;DHT22;13860;52.370;6.764;2023-02-08T12:09:31;8.20;74.60
26099;DHT22;13860;52.370;6.764;2023-02-08T12:12:53;8.10;74.50
26099;DHT22;13860;52.370;6.764;2023-02-08T12:16:10;8.00;74.40
26099;DHT22;13860;52.370;6.764;2023-02-08T12:23:19;7.90;73.90
26099;DHT22;13860;52.370;6.764;2023-02-08T12:26:40;7.80;74.20
26099;DHT22;13860;52.370;6.764;2023-02-08T12:29:51;7.70;74.10
26099;DHT22;13860;52.370;6.764;2023-02-08T12:33:22;7.70;74.20
26099;DHT22;13860;52.370;6.764;2023-02-08T12:37:00;7.60;73.60
26099;DHT22;13860;52.370;6.764;2023-02-08T12:40:41;7.60;73.70
26099;DHT22;13860;52.370;6.764;2023-02-08T12:44:00;7.50;73.70
26099;DHT22;13860;52.370;6.764;2023-02-08T12:47:23;7.50;73.80
26099;DHT22;13860;52.370;6.764;2023-02-08T12:50:39;7.40;73.40
26099;DHT22;13860;52.370;6.764;2023-02-08T12:53:49;7.40;73.50
26099;DHT22;13860;52.370;6.764;2023-02-08T12:56:56;7.40;73.40
26099;DHT22;13860;52.370;6.764;2023-02-08T13:00:16;7.40;73.30
26099;DHT22;13860;52.370;6.764;2023-02-08T13:03:30;7.40;72.80
26099;DHT22;13860;52.370;6.764;2023-02-08T13:06:41;7.40;72.80
26099;DHT22;13860;52.370;6.764;2023-02-08T13:09:53;7.30;72.80
26099;DHT22;13860;52.370;6.764;2023-02-08T13:13:07;7.30;72.60
26099;DHT22;13860;52.370;6.764;2023-02-08T13:16:18;7.30;72.50
26099;DHT22;13860;52.370;6.764;2023-02-08T13:19:30;7.30;72.40
26099;DHT22;13860;52.370;6.764;2023-02-08T13:22:40;7.30;72.20
26099;DHT22;13860;52.370;6.764;2023-02-08T13:25:47;7.20;71.90
26099;DHT22;13860;52.370;6.764;2023-02-08T13:28:54;7.30;72.00
26099;DHT22;13860;52.370;6.764;2023-02-08T13:32:07;7.20;71.80
26099;DHT22;13860;52.370;6.764;2023-02-08T13:35:16;7.20;71.60
26099;DHT22;13860;52.370;6.764;2023-02-08T13:38:27;7.20;71.50
26099;DHT22;13860;52.370;6.764;2023-02-08T13:41:33;7.20;71.50
26099;DHT22;13860;52.370;6.764;2023-02-08T13:44:40;7.20;71.40
26099;DHT22;13860;52.370;6.764;2023-02-08T13:47:44;7.20;71.30
26099;DHT22;13860;52.370;6.764;2023-02-08T13:50:51;7.10;71.30
26099;DHT22;13860;52.370;6.764;2023-02-08T13:54:11;7.10;71.60
26099;DHT22;13860;52.370;6.764;2023-02-08T14:01:13;7.10;70.70
26099;DHT22;13860;52.370;6.764;2023-02-08T14:04:36;7.10;70.80
26099;DHT22;13860;52.370;6.764;2023-02-08T14:07:42;7.10;70.60
26099;DHT22;13860;52.370;6.764;2023-02-08T14:11:02;7.10;70.80
26099;DHT22;13860;52.370;6.764;2023-02-08T14:14:15;7.10;70.30
26099;DHT22;13860;52.370;6.764;2023-02-08T14:17:24;7.10;70.40
26099;DHT22;13860;52.370;6.764;2023-02-08T14:20:35;7.10;70.50
26099;DHT22;13860;52.370;6.764;2023-02-08T14:23:42;7.10;70.20
26099;DHT22;13860;52.370;6.764;2023-02-08T14:26:49;7.10;70.20
26099;DHT22;13860;52.370;6.764;2023-02-08T14:29:58;7.10;70.00
26099;DHT22;13860;52.370;6.764;2023-02-08T14:33:11;7.20;69.90
26099;DHT22;13860;52.370;6.764;2023-02-08T14:36:26;7.20;69.60
26099;DHT22;13860;52.370;6.764;2023-02-08T14:39:33;7.20;69.70
26099;DHT22;13860;52.370;6.764;2023-02-08T14:42:55;7.10;69.60
26099;DHT22;13860;52.370;6.764;2023-02-08T14:49:46;7.20;69.10
26099;DHT22;13860;52.370;6.764;2023-02-08T14:52:56;7.20;69.50
26099;DHT22;13860;52.370;6.764;2023-02-08T14:56:12;7.20;69.30
26099;DHT22;13860;52.370;6.764;2023-02-08T14:59:23;7.20;69.30
26099;DHT22;13860;52.370;6.764;2023-02-08T15:02:30;7.10;69.00
26099;DHT22;13860;52.370;6.764;2023-02-08T15:05:38;7.10;69.10
26099;DHT22;13860;52.370;6.764;2023-02-08T15:09:02;7.10;68.90
26099;DHT22;13860;52.370;6.764;2023-02-08T15:12:12;7.10;69.00
26099;DHT22;13860;52.370;6.764;2023-02-08T15:15:27;7.10;68.70
26099;DHT22;13860;52.370;6.764;2023-02-08T15:18:32;7.10;68.50
26099;DHT22;13860;52.370;6.764;2023-02-08T15:21:38;7.10;68.70
26099;DHT22;13860;52.370;6.764;2023-02-08T15:24:47;7.00;68.50
26099;DHT22;13860;52.370;6.764;2023-02-08T15:27:55;7.00;68.60
26099;DHT22;13860;52.370;6.764;2023-02-08T15:31:04;7.00;68.90
26099;DHT22;13860;52.370;6.764;2023-02-08T15:34:11;7.00;68.60
26099;DHT22;13860;52.370;6.764;2023-02-08T15:37:16;6.90;68.60
26099;DHT22;13860;52.370;6.764;2023-02-08T15:40:27;6.90;68.40
26099;DHT22;13860;52.370;6.764;2023-02-08T15:43:34;6.90;68.40
26099;DHT22;13860;52.370;6.764;2023-02-08T15:46:42;6.90;68.40
26099;DHT22;13860;52.370;6.764;2023-02-08T15:49:48;6.80;68.20
26099;DHT22;13860;52.370;6.764;2023-02-08T15:52:57;6.80;68.10
26099;DHT22;13860;52.370;6.764;2023-02-08T15:56:03;6.80;68.00
26099;DHT22;13860;52.370;6.764;2023-02-08T15:59:17;6.80;68.00
26099;DHT22;13860;52.370;6.764;2023-02-08T16:02:26;6.70;67.80
26099;DHT22;13860;52.370;6.764;2023-02-08T16:05:34;6.70;67.80
26099;DHT22;13860;52.370;6.764;2023-02-08T16:08:40;6.70;67.80
26099;DHT22;13860;52.370;6.764;2023-02-08T16:11:48;6.60;67.60
26099;DHT22;13860;52.370;6.764;2023-02-08T16:14:53;6.60;67.60
26099;DHT22;13860;52.370;6.764;2023-02-08T16:18:01;6.60;67.60
26099;DHT22;13860;52.370;6.764;2023-02-08T16:21:19;6.50;67.50
26099;DHT22;13860;52.370;6.764;2023-02-08T16:24:26;6.50;67.20
26099;DHT22;13860;52.370;6.764;2023-02-08T16:27:30;6.40;67.50
26099;DHT22;13860;52.370;6.764;2023-02-08T16:30:36;6.40;67.40
26099;DHT22;13860;52.370;6.764;2023-02-08T16:33:42;6.30;67.50
26099;DHT22;13860;52.370;6.764;2023-02-08T16:37:04;6.30;67.50
26099;DHT22;13860;52.370;6.764;2023-02-08T16:40:40;6.20;67.50
26099;DHT22;13860;52.370;6.764;2023-02-08T16:44:18;6.10;67.20
26099;DHT22;13860;52.370;6.764;2023-02-08T16:47:27;6.00;67.20
26099;DHT22;13860;52.370;6.764;2023-02-08T16:50:33;6.00;67.70
26099;DHT22;13860;52.370;6.764;2023-02-08T16:53:36;5.90;67.70
26099;DHT22;13860;52.370;6.764;2023-02-08T16:56:46;5.80;67.70
26099;DHT22;13860;52.370;6.764;2023-02-08T16:59:56;5.70;67.80
26099;DHT22;13860;52.370;6.764;2023-02-08T17:03:03;5.70;67.70
26099;DHT22;13860;52.370;6.764;2023-02-08T17:06:10;5.60;67.80
26099;DHT22;13860;52.370;6.764;2023-02-08T17:09:21;5.50;67.80
26099;DHT22;13860;52.370;6.764;2023-02-08T17:12:25;5.40;68.00
26099;DHT22;13860;52.370;6.764;2023-02-08T17:15:32;5.30;68.00
26099;DHT22;13860;52.370;6.764;2023-02-08T17:18:37;5.20;68.10
26099;DHT22;13860;52.370;6.764;2023-02-08T17:21:43;5.20;68.10
26099;DHT22;13860;52.370;6.764;2023-02-08T17:24:47;5.10;68.10
26099;DHT22;13860;52.370;6.764;2023-02-08T17:27:54;5.00;68.10
26099;DHT22;13860;52.370;6.764;2023-02-08T17:31:00;4.90;68.00
26099;DHT22;13860;52.370;6.764;2023-02-08T17:34:06;4.90;68.10
26099;DHT22;13860;52.370;6.764;2023-02-08T17:37:10;4.80;68.10
26099;DHT22;13860;52.370;6.764;2023-02-08T17:40:17;4.70;68.10
26099;DHT22;13860;52.370;6.764;2023-02-08T17:43:21;4.60;68.30
26099;DHT22;13860;52.370;6.764;2023-02-08T17:46:29;4.50;68.20
26099;DHT22;13860;52.370;6.764;2023-02-08T17:49:33;4.50;68.30
26099;DHT22;13860;52.370;6.764;2023-02-08T17:52:40;4.40;68.30
26099;DHT22;13860;52.370;6.764;2023-02-08T17:55:44;4.30;68.90
26099;DHT22;13860;52.370;6.764;2023-02-08T17:59:05;4.30;68.30
26099;DHT22;13860;52.370;6.764;2023-02-08T18:02:11;4.20;68.30
26099;DHT22;13860;52.370;6.764;2023-02-08T18:05:19;4.10;68.30
26099;DHT22;13860;52.370;6.764;2023-02-08T18:08:23;4.00;68.40
26099;DHT22;13860;52.370;6.764;2023-02-08T18:11:29;4.00;68.50
26099;DHT22;13860;52.370;6.764;2023-02-08T18:14:35;3.90;68.40
26099;DHT22;13860;52.370;6.764;2023-02-08T18:17:43;3.80;68.40
26099;DHT22;13860;52.370;6.764;2023-02-08T18:20:47;3.80;68.40
26099;DHT22;13860;52.370;6.764;2023-02-08T18:23:53;3.70;68.40
26099;DHT22;13860;52.370;6.764;2023-02-08T18:26:58;3.60;68.40
26099;DHT22;13860;52.370;6.764;2023-02-08T18:30:04;3.50;68.50
26099;DHT22;13860;52.370;6.764;2023-02-08T18:33:10;3.50;68.50
26099;DHT22;13860;52.370;6.764;2023-02-08T18:36:17;3.40;68.50
26099;DHT22;13860;52.370;6.764;2023-02-08T18:39:21;3.40;68.60
26099;DHT22;13860;52.370;6.764;2023-02-08T18:42:27;3.30;68.60
26099;DHT22;13860;52.370;6.764;2023-02-08T18:45:31;3.20;68.60
26099;DHT22;13860;52.370;6.764;2023-02-08T18:48:39;3.20;68.70
26099;DHT22;13860;52.370;6.764;2023-02-08T18:51:45;3.10;68.70
26099;DHT22;13860;52.370;6.764;2023-02-08T18:54:51;3.10;68.70
26099;DHT22;13860;52.370;6.764;2023-02-08T18:57:55;3.00;68.70
26099;DHT22;13860;52.370;6.764;2023-02-08T19:01:05;3.00;68.80
26099;DHT22;13860;52.370;6.764;2023-02-08T19:04:11;2.90;68.70
26099;DHT22;13860;52.370;6.764;2023-02-08T19:07:17;2.80;68.80
26099;DHT22;13860;52.370;6.764;2023-02-08T19:10:21;2.80;68.80
26099;DHT22;13860;52.370;6.764;2023-02-08T19:13:27;2.80;68.90
26099;DHT22;13860;52.370;6.764;2023-02-08T19:16:33;2.70;68.90
26099;DHT22;13860;52.370;6.764;2023-02-08T19:19:41;2.60;68.80
26099;DHT22;13860;52.370;6.764;2023-02-08T19:22:45;2.60;68.90
26099;DHT22;13860;52.370;6.764;2023-02-08T19:25:51;2.60;68.90
26099;DHT22;13860;52.370;6.764;2023-02-08T19:28:57;2.50;69.00
26099;DHT22;13860;52.370;6.764;2023-02-08T19:32:05;2.40;69.00
26099;DHT22;13860;52.370;6.764;2023-02-08T19:35:12;2.40;69.10
26099;DHT22;13860;52.370;6.764;2023-02-08T19:38:18;2.40;69.10
26099;DHT22;13860;52.370;6.764;2023-02-08T19:41:22;2.30;69.10
26099;DHT22;13860;52.370;6.764;2023-02-08T19:44:28;2.30;69.10
26099;DHT22;13860;52.370;6.764;2023-02-08T19:47:32;2.20;69.10
26099;DHT22;13860;52.370;6.764;2023-02-08T19:50:59;2.20;69.20
26099;DHT22;13860;52.370;6.764;2023-02-08T19:54:05;2.10;69.20
26099;DHT22;13860;52.370;6.764;2023-02-08T19:57:12;2.10;69.20
26099;DHT22;13860;52.370;6.764;2023-02-08T20:00:16;2.10;70.00
26099;DHT22;13860;52.370;6.764;2023-02-08T20:03:27;2.00;69.30
26099;DHT22;13860;52.370;6.764;2023-02-08T20:06:35;2.00;69.30
26099;DHT22;13860;52.370;6.764;2023-02-08T20:09:41;1.90;69.30
26099;DHT22;13860;52.370;6.764;2023-02-08T20:12:45;1.90;69.40
26099;DHT22;13860;52.370;6.764;2023-02-08T20:15:56;1.90;69.40
26099;DHT22;13860;52.370;6.764;2023-02-08T20:19:01;1.80;69.40
26099;DHT22;13860;52.370;6.764;2023-02-08T20:22:09;1.80;69.40
26099;DHT22;13860;52.370;6.764;2023-02-08T20:25:13;1.80;69.50
26099;DHT22;13860;52.370;6.764;2023-02-08T20:28:18;1.70;69.50
26099;DHT22;13860;52.370;6.764;2023-02-08T20:31:25;1.70;69.50
26099;DHT22;13860;52.370;6.764;2023-02-08T20:34:32;1.70;69.60